Ojai, California
Current Conditions -  °F | °C
As of 4:51 PM on Wednesday 22 Oct 2014 (Local Time) from KOXR Reporting Station
Clear Clear  
Wind Chill: 72°   Ceiling: Unl
Heat Index: 72°   Visibility: 10mi
Dew Point: 60°   Wind: 10mph
Humidity: 66%   Direction: 260°W
Pressure: 29.9"   Gusts: NA
Location:  34.44°N, 119.24°W
Report Text: KOXR 222351Z AUTO 26009KT 10SM CLR 22/16 A2990 RMK AO2 SLP123 T02220156 10250 20222 58006 TSNO
Loading
Personal Weather Stations






























Interactive Weather Map
Tropical Storm Tracking
New forecast layout! Learn more

10-Day Weather Forecast

Advertisements
Track Severe Weather on mobile